Weather reports worldwide

Advertisment
Sutton bonington, United Kingdom (99025): temperature & dewpoint: 16.02.2019 01:00:00 - 22.02.2019 01:00:00 (GMT)Sutton bonington, United Kingdom (99025): temperature -20cm & temperature -100cm: 16.02.2019 01:00:00 - 22.02.2019 01:00:00 (GMT)Sutton bonington, United Kingdom (99025): wind speed: 16.02.2019 01:00:00 - 22.02.2019 01:00:00 (GMT)Sutton bonington, United Kingdom (99025): wind direction: 16.02.2019 01:00:00 - 22.02.2019 01:00:00 (GMT)Sutton bonington, United Kingdom (99025): precipitation: 16.02.2019 01:00:00 - 22.02.2019 01:00:00 (GMT)
Date & Time tt [°C] td [°C] tt -20cm [°C] tt -100cm [°C] ff [km/h] ff [kn] dd rr [mm]
22.02.2019 01:00:00 7,5 6,7 - - 4 2 SW -
22.02.2019 00:00:00 7,5 6,4 - - 2 1 W 0,0
21.02.2019 23:00:00 8,1 6,1 - - 4 2 SW 0,0
21.02.2019 22:00:00 9,5 7,3 - - 9 5 SW 0,0
21.02.2019 21:00:00 10,1 7,3 - - 8 4 S 0,0
21.02.2019 20:00:00 10,7 7,9 - - 8 4 SSW 0,0
21.02.2019 19:00:00 11,6 8,2 - - 8 4 SSW 0,0
21.02.2019 18:00:00 13,1 8,3 - - 8 4 S 0,0
21.02.2019 17:00:00 14,7 8,6 - - 5 3 SSW 0,0
21.02.2019 16:00:00 15,9 8,8 - - 11 6 WSW 0,0
21.02.2019 15:00:00 16,0 9,5 - - 11 6 WSW 0,0
21.02.2019 14:00:00 15,1 8,9 - - 15 8 WSW 0,0
21.02.2019 13:00:00 14,3 8,9 - - 15 8 WSW 0,0
21.02.2019 12:00:00 13,2 8,9 - - 16 9 WSW 0,0
21.02.2019 11:00:00 12,2 8,8 - - 16 9 WSW 0,0
21.02.2019 10:00:00 11,6 8,8 - - 15 8 WSW 0,0
21.02.2019 09:00:00 10,3 8,4 6,9 6,7 13 7 SW 0,0
21.02.2019 08:00:00 9,6 7,9 - - 8 4 SW 0,0
21.02.2019 07:00:00 9,4 7,5 - - 11 6 SSW 0,0
21.02.2019 06:00:00 9,3 7,3 - - 11 6 SSW 0,0
21.02.2019 05:00:00 9,2 7,2 - - 9 5 SW 0,0
21.02.2019 04:00:00 9,0 7,0 - - 13 7 SSW 0,0
21.02.2019 03:00:00 9,2 7,0 - - 16 9 SW 0,0
21.02.2019 02:00:00 9,5 7,2 - - 15 8 SSW 0,0
21.02.2019 01:00:00 9,9 7,1 - - 15 8 SSW 0,0
21.02.2019 00:00:00 9,5 7,3 - - 9 5 SSW 0,0
20.02.2019 23:00:00 9,1 7,3 - - 8 4 SSW 0,2
20.02.2019 22:00:00 9,2 6,6 - - 9 5 SSW 0,0
20.02.2019 21:00:00 9,4 6,5 - - 13 7 S 0,0
20.02.2019 20:00:00 9,9 6,3 - - 13 7 SSW 0,0
20.02.2019 19:00:00 10,5 6,3 - - 9 5 SSW 0,0
20.02.2019 18:00:00 10,6 6,2 - - 13 7 SSW 0,0
20.02.2019 17:00:00 11,3 6,0 - - 13 7 SSW 0,0
20.02.2019 16:00:00 11,4 5,7 - - 13 7 SW 0,0
20.02.2019 15:00:00 - - - - - - - -
20.02.2019 14:00:00 - - - - - - - -
20.02.2019 13:00:00 - - - - - - - -
20.02.2019 12:00:00 10,7 6,1 - - 18 10 SW 0,0
20.02.2019 11:00:00 10,3 6,1 - - 16 9 SW 0,0
20.02.2019 10:00:00 10,0 6,0 - - 16 9 SW 0,0
20.02.2019 09:00:00 9,2 5,5 6,7 6,5 16 9 SW 0,0
20.02.2019 08:00:00 8,9 5,5 - - 15 8 SSW 0,0
20.02.2019 07:00:00 8,6 5,3 - - 16 9 SSW 0,0
20.02.2019 06:00:00 8,4 5,3 - - 16 9 SSW 0,0
20.02.2019 05:00:00 8,0 5,3 - - 13 7 SSW 0,0
20.02.2019 04:00:00 8,0 5,2 - - 13 7 SSW 0,0
20.02.2019 03:00:00 8,0 5,1 - - 16 9 SSW 0,0
20.02.2019 02:00:00 8,0 5,1 - - 16 9 SSW 0,0
20.02.2019 01:00:00 7,9 4,8 - - 15 8 SSW 0,0
20.02.2019 00:00:00 7,8 4,7 - - 13 7 SSW 0,0
19.02.2019 23:00:00 8,0 4,7 - - 13 7 SSW 0,0
19.02.2019 22:00:00 8,2 4,4 - - 11 6 S 0,0
19.02.2019 21:00:00 8,4 3,8 - - 13 7 SSW 0,0
19.02.2019 20:00:00 8,6 3,5 - - 11 6 SSW 0,0
19.02.2019 19:00:00 8,6 3,6 - - 11 6 SSW 0,0
19.02.2019 18:00:00 8,5 3,7 - - 9 5 SSW 0,0
19.02.2019 17:00:00 8,8 4,0 - - 11 6 SW 0,0
19.02.2019 16:00:00 9,0 4,0 - - 11 6 SSW 0,0
19.02.2019 15:00:00 9,4 3,4 - - 13 7 SW 0,0
19.02.2019 14:00:00 9,3 3,5 - - 13 7 WSW 0,0
19.02.2019 13:00:00 9,9 4,2 - - 16 9 WSW 0,0
19.02.2019 12:00:00 9,2 3,5 - - 16 9 WSW 0,0
19.02.2019 11:00:00 8,8 3,9 - - 15 8 SW 0,0
19.02.2019 10:00:00 8,2 4,0 - - 21 11 SW 0,0
19.02.2019 09:00:00 6,6 3,5 6,5 6,4 15 8 SW 0,0
19.02.2019 08:00:00 5,8 2,8 - - 15 8 SW 0,0
19.02.2019 07:00:00 6,5 3,3 - - 13 7 WSW 0,0
19.02.2019 06:00:00 6,3 3,3 - - 13 7 WSW 0,0
19.02.2019 05:00:00 6,2 3,6 - - 11 6 SW 0,0
19.02.2019 04:00:00 6,4 3,7 - - 15 8 SW 0,0
19.02.2019 03:00:00 7,0 3,9 - - 13 7 SW 0,0
19.02.2019 02:00:00 7,1 3,9 - - 16 9 SW 0,0
19.02.2019 01:00:00 7,0 3,8 - - 16 9 SW 0,0
19.02.2019 00:00:00 6,4 3,5 - - 16 9 SW 0,0
18.02.2019 23:00:00 6,6 3,1 - - 15 8 SW 0,0
18.02.2019 22:00:00 7,2 3,3 - - 13 7 SW 0,0
18.02.2019 21:00:00 7,1 2,8 - - 11 6 SW 0,0
18.02.2019 20:00:00 7,7 2,1 - - 11 6 SW 0,0
18.02.2019 19:00:00 8,6 2,0 - - 13 7 WSW 0,0
18.02.2019 18:00:00 8,3 2,4 - - 11 6 SSW 0,0
18.02.2019 17:00:00 9,4 3,9 - - 9 5 SSW 0,0
18.02.2019 16:00:00 9,8 3,5 - - 11 6 SW 0,0
18.02.2019 15:00:00 10,2 3,7 - - 15 8 WSW 0,0
18.02.2019 14:00:00 10,6 5,1 - - 13 7 WSW 0,0
18.02.2019 13:00:00 10,4 5,3 - - 21 11 SW 0,0
18.02.2019 12:00:00 10,5 6,0 - - 18 10 SSW 0,0
18.02.2019 11:00:00 10,3 6,1 - - 16 9 SSW 0,0
18.02.2019 10:00:00 9,2 6,1 - - 16 9 S 0,0
18.02.2019 09:00:00 8,5 6,3 6,5 6,2 13 7 S 0,0
18.02.2019 08:00:00 7,9 6,1 - - 13 7 S 0,0
18.02.2019 07:00:00 7,7 5,9 - - 13 7 S 0,0
18.02.2019 06:00:00 7,5 5,9 - - 13 7 S 0,0
18.02.2019 05:00:00 7,6 5,9 - - 15 8 S 0,0
18.02.2019 04:00:00 8,1 5,9 - - 16 9 S 0,0
18.02.2019 03:00:00 7,8 5,5 - - 15 8 S 0,0
18.02.2019 02:00:00 8,0 5,8 - - 21 11 S 0,0
18.02.2019 01:00:00 8,0 5,8 - - 21 11 S 0,0
18.02.2019 00:00:00 8,3 5,9 - - 16 9 S 0,0
17.02.2019 23:00:00 8,4 6,1 - - 16 9 S 0,0
17.02.2019 22:00:00 8,8 6,1 - - 18 10 S 0,0
17.02.2019 21:00:00 9,5 6,4 - - 13 7 S 0,0
17.02.2019 20:00:00 10,1 6,7 - - 13 7 S 0,0
17.02.2019 19:00:00 11,0 7,8 - - 15 8 S 0,0
17.02.2019 18:00:00 10,7 6,2 - - 9 5 S 0,0
17.02.2019 17:00:00 11,8 7,1 - - 11 6 SSW 0,0
17.02.2019 16:00:00 13,0 6,9 - - 15 8 SSW 0,0
17.02.2019 15:00:00 12,9 7,7 - - 16 9 SSW 0,0
17.02.2019 14:00:00 12,7 7,8 - - 18 10 SSW 0,0
17.02.2019 13:00:00 12,1 7,2 - - 15 8 SSW 0,0
17.02.2019 12:00:00 12,8 6,7 - - 18 10 SSW 0,0
17.02.2019 11:00:00 - - - - - - - -
17.02.2019 10:00:00 9,6 5,0 - - 16 9 SSE 0,0
17.02.2019 09:00:00 7,9 5,1 6,2 5,9 26 14 SSE 0,0
17.02.2019 08:00:00 7,1 5,3 - - 16 9 SSE 0,0
17.02.2019 07:00:00 7,8 5,8 - - 15 8 S 0,0
17.02.2019 06:00:00 8,1 6,3 - - 16 9 S 0,0
17.02.2019 05:00:00 8,6 6,8 - - 15 8 S 0,0
17.02.2019 04:00:00 9,1 7,0 - - 18 10 S 0,0
17.02.2019 03:00:00 8,9 6,9 - - 18 10 S 0,0
17.02.2019 02:00:00 9,5 7,3 - - 18 10 S 0,0
17.02.2019 01:00:00 10,2 7,7 - - 21 11 S 0,0
17.02.2019 00:00:00 10,6 7,9 - - 16 9 S 0,0
16.02.2019 23:00:00 11,2 8,5 - - 18 10 S 0,0
16.02.2019 22:00:00 11,6 8,8 - - 15 8 S 0,0
16.02.2019 21:00:00 12,1 8,7 - - 21 11 S 0,0
16.02.2019 20:00:00 12,1 9,1 - - 15 8 S 0,0
16.02.2019 19:00:00 12,0 9,2 - - 16 9 S 0,0
16.02.2019 18:00:00 11,6 8,8 - - 16 9 S 0,0
16.02.2019 17:00:00 11,9 8,2 - - 11 6 S 0,0
16.02.2019 16:00:00 12,5 8,2 - - 15 8 SSW 0,0
16.02.2019 15:00:00 12,9 7,5 - - 16 9 SSW 0,0
16.02.2019 14:00:00 13,5 6,9 - - 16 9 SW 0,0
16.02.2019 13:00:00 12,9 7,0 - - 18 10 SSW 0,0
16.02.2019 12:00:00 11,7 7,0 - - 15 8 SW 0,0
16.02.2019 11:00:00 11,4 7,4 - - 15 8 SW 0,0
16.02.2019 10:00:00 10,5 7,9 - - 15 8 SSW 0,0
16.02.2019 09:00:00 9,5 7,8 5,2 5,7 9 5 SW 0,0
16.02.2019 08:00:00 8,6 7,3 - - 11 6 SSW 0,0
16.02.2019 07:00:00 8,9 7,3 - - 8 4 SSW 0,0
16.02.2019 06:00:00 8,7 6,9 - - 13 7 SSW 0,0
16.02.2019 05:00:00 8,8 6,4 - - 13 7 SW 0,0
16.02.2019 04:00:00 8,9 6,1 - - 15 8 SSW 0,0
16.02.2019 03:00:00 8,1 5,2 - - 15 8 SSW 0,0
16.02.2019 02:00:00 7,5 4,7 - - 13 7 SSW 0,0
16.02.2019 01:00:00 7,5 3,7 - - 8 4 SSW 0,0

tt = temperature
td = dewpoint
tt -20cm = temperature -20cm
tt -100cm = temperature -100cm
ff = wind speed
dd = wind direction
rr = precipitation

Next stations